Time;durP1;ratioP1;P1;durP2;ratioP2;P2;SDS_P1;SDS_P2;PMS_P1;PMS_P2;Temp;Humidity;BMP_temperature;BMP_pressure;BME280_temperature;BME280_humidity;BME280_pressure;Samples;Min_cycle;Max_cycle;Signal;HPM_P1;HPM_P2
2022/10/14 03:02:22;;;;;;;1.50;1.10;;;16.20;83.80;;;;;;5274979;23;20869;-79
2022/10/14 03:04:49;;;;;;;0.90;0.90;;;16.20;83.80;;;;;;4976804;28;20442;-79
2022/10/14 03:07:15;;;;;;;1.10;0.90;;;16.20;83.80;;;;;;4978872;28;20454;-79
2022/10/14 03:09:42;;;;;;;0.87;0.87;;;16.20;83.80;;;;;;4977720;28;20875;-77
2022/10/14 03:12:09;;;;;;;1.53;0.90;;;16.20;83.70;;;;;;4975722;28;20466;-80
2022/10/14 03:14:36;;;;;;;1.00;1.00;;;16.20;83.80;;;;;;4979996;28;20450;-79
2022/10/14 03:17:02;;;;;;;1.13;1.03;;;16.10;83.80;;;;;;4977388;28;20934;-80
2022/10/14 03:19:30;;;;;;;1.20;1.10;;;16.10;83.90;;;;;;4977964;28;20477;-80
2022/10/14 03:21:57;;;;;;;0.90;0.90;;;16.10;83.90;;;;;;4977883;28;21001;-80
2022/10/14 03:24:24;;;;;;;1.30;1.00;;;16.00;84.10;;;;;;4978186;28;20450;-80
2022/10/14 03:26:51;;;;;;;0.90;0.80;;;16.00;84.20;;;;;;4977224;28;20458;-79
2022/10/14 03:29:17;;;;;;;1.10;1.10;;;16.00;84.30;;;;;;4977119;28;20505;-79
2022/10/14 03:31:44;;;;;;;1.17;1.07;;;16.00;84.30;;;;;;4976142;28;20825;-79
2022/10/14 03:34:11;;;;;;;1.30;0.93;;;16.00;84.40;;;;;;4976827;28;20450;-79
2022/10/14 03:36:39;;;;;;;0.90;0.90;;;16.00;84.30;;;;;;4977647;28;20457;-79
2022/10/14 03:39:05;;;;;;;1.00;1.00;;;15.90;84.60;;;;;;4976950;28;20482;-80
2022/10/14 03:41:32;;;;;;;1.07;1.07;;;15.90;84.60;;;;;;4976552;28;20474;-80
2022/10/14 03:43:59;;;;;;;1.10;1.00;;;15.80;84.50;;;;;;4976399;28;20946;-79
2022/10/14 03:46:25;;;;;;;0.80;0.80;;;15.80;84.90;;;;;;4975947;28;20873;-80
2022/10/14 03:48:52;;;;;;;0.90;0.90;;;15.80;84.90;;;;;;4976233;28;20462;-80
2022/10/14 03:51:19;;;;;;;0.90;0.90;;;15.80;85.10;;;;;;4975888;28;20477;-79
2022/10/14 03:53:47;;;;;;;1.10;1.03;;;15.60;85.40;;;;;;4976011;28;20450;-79
2022/10/14 03:56:14;;;;;;;1.10;1.00;;;15.60;85.50;;;;;;4975351;28;20461;-79
2022/10/14 03:58:41;;;;;;;1.10;1.00;;;15.50;85.80;;;;;;4975388;28;20493;-79
2022/10/14 04:01:07;;;;;;;0.80;0.80;;;15.60;85.70;;;;;;4975377;28;20489;-79
2022/10/14 04:03:34;;;;;;;1.00;1.00;;;15.60;85.60;;;;;;4976808;28;20430;-80
2022/10/14 04:06:01;;;;;;;1.00;1.00;;;15.30;86.70;;;;;;4976349;28;20461;-80
2022/10/14 04:08:27;;;;;;;1.00;1.00;;;15.10;87.30;;;;;;4982642;28;20454;-79
2022/10/14 04:10:57;;;;;;;1.00;1.00;;;15.00;88.00;;;;;;4976538;28;20541;-80
2022/10/14 04:13:24;;;;;;;1.00;1.00;;;15.10;87.40;;;;;;4977276;28;20477;-80
2022/10/14 04:15:51;;;;;;;1.00;1.00;;;15.30;87.10;;;;;;4976854;28;20450;-80
2022/10/14 04:18:17;;;;;;;1.27;1.17;;;15.30;86.90;;;;;;4977268;28;20780;-80
2022/10/14 04:20:44;;;;;;;1.10;1.10;;;15.20;87.10;;;;;;4977049;28;20477;-80
2022/10/14 04:23:11;;;;;;;0.80;0.80;;;15.20;86.90;;;;;;4976753;28;20446;-79
2022/10/14 04:25:38;;;;;;;1.00;1.00;;;15.30;86.90;;;;;;4977080;28;20458;-79
2022/10/14 04:28:06;;;;;;;1.27;1.00;;;15.40;86.60;;;;;;4976388;28;20995;-80
2022/10/14 04:30:33;;;;;;;0.80;0.80;;;15.40;86.30;;;;;;4976297;28;20449;-79
2022/10/14 04:33:00;;;;;;;1.17;1.07;;;15.50;86.20;;;;;;4976270;28;20520;-79
2022/10/14 04:35:26;;;;;;;0.87;0.87;;;15.50;86.10;;;;;;4976598;28;20453;-80
2022/10/14 04:37:54;;;;;;;1.20;1.10;;;15.60;86.00;;;;;;4976103;28;20791;-80
2022/10/14 04:40:24;;;;;;;1.13;0.93;;;15.60;85.70;;;;;;4975985;28;20489;-79
2022/10/14 04:42:54;;;;;;;0.97;0.97;;;15.60;85.60;;;;;;4976532;28;20434;-80
2022/10/14 04:45:22;;;;;;;0.80;0.80;;;15.70;85.40;;;;;;4979916;28;20450;-79
2022/10/14 04:47:48;;;;;;;1.20;1.20;;;15.70;85.30;;;;;;4979864;28;20485;-80
2022/10/14 04:50:15;;;;;;;1.10;1.10;;;15.70;85.10;;;;;;4980065;28;20446;-80
2022/10/14 04:52:42;;;;;;;0.90;0.90;;;15.60;85.40;;;;;;4979870;28;20474;-79
2022/10/14 04:55:09;;;;;;;1.17;1.10;;;15.60;85.40;;;;;;4978969;28;20453;-79
2022/10/14 04:57:36;;;;;;;1.20;1.10;;;15.60;85.20;;;;;;4978293;28;20864;-79
2022/10/14 05:00:04;;;;;;;0.80;0.80;;;15.70;85.20;;;;;;4979100;28;20486;-79
2022/10/14 05:02:32;;;;;;;1.00;0.93;;;15.70;85.20;;;;;;4979391;28;20478;-79
2022/10/14 05:04:59;;;;;;;0.80;0.80;;;15.70;85.00;;;;;;4980416;28;20469;-80
2022/10/14 05:07:26;;;;;;;1.00;1.00;;;15.70;85.10;;;;;;4980048;28;20460;-80
2022/10/14 05:09:53;;;;;;;1.57;1.00;;;15.70;84.80;;;;;;4979146;28;20941;-79
2022/10/14 05:12:20;;;;;;;1.10;1.10;;;15.40;85.40;;;;;;4979665;28;20544;-79
2022/10/14 05:14:46;;;;;;;1.10;0.90;;;15.20;86.20;;;;;;4979989;28;20462;-80
2022/10/14 05:17:13;;;;;;;1.20;1.10;;;15.10;87.10;;;;;;4979947;28;20446;-80
2022/10/14 05:19:41;;;;;;;1.10;1.00;;;15.20;86.70;;;;;;4980123;28;20485;-80
2022/10/14 05:22:08;;;;;;;1.13;1.13;;;15.30;86.30;;;;;;4979673;28;20470;-79
2022/10/14 05:24:34;;;;;;;1.00;0.90;;;15.40;86.10;;;;;;4980249;28;20520;-79
2022/10/14 05:27:01;;;;;;;0.93;0.93;;;15.40;86.00;;;;;;4980490;28;20481;-79
2022/10/14 05:29:28;;;;;;;1.30;0.93;;;15.50;85.90;;;;;;4979147;28;20541;-79
2022/10/14 05:31:55;;;;;;;1.10;1.10;;;15.50;85.80;;;;;;4979290;28;20529;-79
2022/10/14 05:34:22;;;;;;;1.00;1.00;;;15.60;85.70;;;;;;4979228;28;20941;-79
2022/10/14 05:36:50;;;;;;;0.87;0.83;;;15.60;85.60;;;;;;4980152;28;20454;-80
2022/10/14 05:39:17;;;;;;;0.90;0.90;;;15.60;85.30;;;;;;4979628;28;20493;-80
2022/10/14 05:41:43;;;;;;;0.97;0.90;;;15.70;85.20;;;;;;4980416;28;21047;-79
2022/10/14 05:44:10;;;;;;;0.97;0.97;;;15.70;85.20;;;;;;4981451;28;20863;-79
2022/10/14 05:46:37;;;;;;;1.10;1.00;;;15.70;85.20;;;;;;4982740;28;20458;-80
2022/10/14 05:49:04;;;;;;;1.10;1.00;;;15.70;85.20;;;;;;4982804;28;20474;-80
2022/10/14 05:51:31;;;;;;;0.80;0.80;;;15.70;85.00;;;;;;4984711;28;20863;-79
2022/10/14 05:53:59;;;;;;;2.40;1.00;;;15.70;85.00;;;;;;4981753;28;20446;-80
2022/10/14 05:56:26;;;;;;;0.87;0.87;;;15.70;85.00;;;;;;4979354;28;20482;-80
2022/10/14 05:58:53;;;;;;;0.90;0.90;;;15.70;85.20;;;;;;4981698;28;20458;-80
2022/10/14 06:01:19;;;;;;;0.80;0.80;;;15.70;85.10;;;;;;4981301;28;20486;-80
2022/10/14 06:03:49;;;;;;;1.03;0.93;;;15.70;85.10;;;;;;4982381;28;20443;-80
2022/10/14 06:06:16;;;;;;;0.87;0.87;;;15.70;85.20;;;;;;4981297;28;20454;-80
2022/10/14 06:08:44;;;;;;;1.00;1.00;;;15.70;85.40;;;;;;4981958;28;20454;-80
2022/10/14 06:11:12;;;;;;;1.20;1.13;;;15.70;85.20;;;;;;4991437;28;20454;-80
2022/10/14 06:13:39;;;;;;;1.03;1.00;;;15.70;85.40;;;;;;4997976;28;20446;-80
2022/10/14 06:16:08;;;;;;;1.00;0.90;;;15.50;85.80;;;;;;4996769;28;20450;-79
2022/10/14 06:18:35;;;;;;;1.00;1.00;;;15.60;85.80;;;;;;4996775;28;20442;-79
2022/10/14 06:21:02;;;;;;;1.43;1.13;;;15.60;85.70;;;;;;4993376;28;20841;-80
2022/10/14 06:23:29;;;;;;;0.70;0.70;;;15.70;85.70;;;;;;4987722;28;20794;-79
2022/10/14 06:25:56;;;;;;;1.20;1.10;;;15.70;85.50;;;;;;4985359;28;20863;-80
2022/10/14 06:28:24;;;;;;;1.40;1.07;;;15.60;85.50;;;;;;4984842;28;20458;-80
2022/10/14 06:30:51;;;;;;;1.20;1.10;;;15.70;85.70;;;;;;4983213;28;20458;-80
2022/10/14 06:33:18;;;;;;;1.10;1.10;;;15.50;85.70;;;;;;4984041;28;20457;-80
2022/10/14 06:35:44;;;;;;;0.90;0.90;;;15.50;86.00;;;;;;4982558;28;20450;-80
2022/10/14 06:38:11;;;;;;;0.80;0.80;;;15.30;86.50;;;;;;4984492;28;20457;-80
2022/10/14 06:40:38;;;;;;;1.33;1.10;;;15.30;86.90;;;;;;4986048;28;20569;-80
2022/10/14 06:43:05;;;;;;;0.90;0.90;;;15.30;86.90;;;;;;4984669;28;20462;-78
2022/10/14 06:45:33;;;;;;;1.03;1.03;;;15.40;86.80;;;;;;4984731;28;20449;-80
2022/10/14 06:48:00;;;;;;;1.00;0.90;;;15.50;86.70;;;;;;4982586;28;20447;-79
2022/10/14 06:50:26;;;;;;;0.90;0.90;;;15.40;86.90;;;;;;4977983;28;20865;-79
2022/10/14 06:52:53;;;;;;;1.23;1.10;;;15.20;87.40;;;;;;4978868;28;20457;-79
2022/10/14 06:55:20;;;;;;;1.30;1.20;;;15.20;87.60;;;;;;4980691;28;20484;-79
2022/10/14 06:57:46;;;;;;;0.90;0.90;;;15.20;87.30;;;;;;4979656;28;20451;-79
2022/10/14 07:00:14;;;;;;;1.20;1.20;;;15.10;87.90;;;;;;4986282;28;21012;-80
2022/10/14 07:02:43;;;;;;;1.20;1.10;;;14.90;88.80;;;;;;4990057;28;20492;-79
2022/10/14 07:05:11;;;;;;;2.00;1.10;;;15.00;88.80;;;;;;4988918;28;20465;-78
2022/10/14 07:07:38;;;;;;;0.90;0.90;;;15.20;88.80;;;;;;4980854;28;20805;-78
2022/10/14 07:10:05;;;;;;;1.10;1.10;;;15.00;88.60;;;;;;4977746;28;20454;-78
2022/10/14 07:12:31;;;;;;;1.20;1.20;;;15.10;88.70;;;;;;4975028;28;20991;-77
2022/10/14 07:14:58;;;;;;;0.90;0.90;;;15.20;88.40;;;;;;4975582;28;20446;-77
2022/10/14 07:17:25;;;;;;;1.20;1.10;;;15.20;87.80;;;;;;4975402;28;20450;-78
2022/10/14 07:19:53;;;;;;;1.00;1.00;;;15.10;88.50;;;;;;4975078;28;20516;-78
2022/10/14 07:22:20;;;;;;;1.13;1.03;;;15.20;87.90;;;;;;4977321;28;20996;-77
2022/10/14 07:24:47;;;;;;;0.90;0.90;;;15.20;88.00;;;;;;4976778;28;20461;-79
2022/10/14 07:27:15;;;;;;;1.00;1.00;;;15.10;88.30;;;;;;4976980;28;20459;-78
2022/10/14 07:29:41;;;;;;;1.07;1.00;;;14.70;89.50;;;;;;4978757;28;20447;-79
2022/10/14 07:32:08;;;;;;;1.50;1.40;;;14.80;90.30;;;;;;4980767;28;20506;-78
2022/10/14 07:34:35;;;;;;;1.00;1.00;;;15.00;89.60;;;;;;4975548;28;20481;-78
2022/10/14 07:37:03;;;;;;;1.10;1.00;;;15.00;89.70;;;;;;4976472;28;20450;-79
2022/10/14 07:39:30;;;;;;;1.10;1.00;;;15.10;88.80;;;;;;4975965;28;20795;-76
2022/10/14 07:41:56;;;;;;;1.13;1.07;;;14.80;88.70;;;;;;4978109;28;20492;-77
2022/10/14 07:44:23;;;;;;;1.10;0.83;;;15.00;89.00;;;;;;4977196;28;20451;-78
2022/10/14 07:46:50;;;;;;;0.90;0.80;;;15.00;89.10;;;;;;4977360;28;20942;-79
2022/10/14 07:49:18;;;;;;;1.20;0.90;;;15.20;88.60;;;;;;4976621;28;20993;-79
2022/10/14 07:51:46;;;;;;;1.03;0.93;;;15.30;88.00;;;;;;4976467;28;20466;-79
2022/10/14 07:54:17;;;;;;;1.03;1.03;;;15.30;87.80;;;;;;4976190;28;20446;-78
2022/10/14 07:56:44;;;;;;;0.80;0.80;;;15.30;87.50;;;;;;4977008;28;20457;-79
2022/10/14 07:59:12;;;;;;;0.90;0.90;;;15.30;88.00;;;;;;4975698;28;20450;-79
2022/10/14 08:01:38;;;;;;;0.80;0.80;;;15.50;87.40;;;;;;4975639;28;20500;-79
2022/10/14 08:04:05;;;;;;;0.70;0.70;;;15.40;87.20;;;;;;4975643;28;20831;-76
2022/10/14 08:06:32;;;;;;;1.53;1.03;;;15.30;87.30;;;;;;4976123;28;20450;-79
2022/10/14 08:08:59;;;;;;;1.10;1.00;;;15.60;87.10;;;;;;4977879;28;20505;-77
2022/10/14 08:11:28;;;;;;;0.87;0.80;;;15.80;86.60;;;;;;4975977;28;20462;-77
2022/10/14 08:13:57;;;;;;;0.80;0.80;;;15.70;85.40;;;;;;4975283;28;20458;-77
2022/10/14 08:16:26;;;;;;;0.70;0.70;;;15.70;85.10;;;;;;4975312;28;20446;-78
2022/10/14 08:18:55;;;;;;;0.90;0.90;;;15.50;85.50;;;;;;4977413;28;20462;-78
2022/10/14 08:21:22;;;;;;;0.93;0.93;;;15.20;86.70;;;;;;4978991;28;20498;-78
2022/10/14 08:23:48;;;;;;;0.70;0.70;;;15.50;87.30;;;;;;4978822;28;20442;-78
2022/10/14 08:26:20;;;;;;;0.80;0.80;;;15.60;86.20;;;;;;4979588;28;20900;-77
2022/10/14 08:28:49;;;;;;;0.80;0.80;;;15.60;86.60;;;;;;4979006;28;20796;-78
2022/10/14 08:31:16;;;;;;;0.70;0.70;;;15.80;85.80;;;;;;4980014;28;20466;-78
2022/10/14 08:33:43;;;;;;;0.90;0.90;;;15.80;84.60;;;;;;4979814;28;20454;-81
2022/10/14 08:36:10;;;;;;;0.83;0.83;;;15.80;84.30;;;;;;4979828;28;20454;-71
2022/10/14 08:38:36;;;;;;;1.00;0.87;;;15.80;84.80;;;;;;4978830;28;20451;-78
2022/10/14 08:41:16;;;;;;;0.90;0.90;;;15.90;85.30;;;;;;4979038;28;20525;-77
2022/10/14 08:43:51;;;;;;;0.80;0.80;;;15.90;84.50;;;;;;4979212;28;20446;-78
2022/10/14 08:46:23;;;;;;;0.80;0.80;;;15.80;84.00;;;;;;4979411;28;20441;-78
2022/10/14 08:48:55;;;;;;;0.70;0.70;;;15.60;85.40;;;;;;4979030;28;20473;-78
2022/10/14 08:51:22;;;;;;;0.60;0.60;;;15.60;84.90;;;;;;4978554;28;20881;-78
2022/10/14 08:53:54;;;;;;;0.70;0.70;;;15.60;85.90;;;;;;4978355;28;20824;-78
2022/10/14 08:56:23;;;;;;;1.23;0.90;;;15.80;85.00;;;;;;4978225;28;20453;-78
2022/10/14 08:58:53;;;;;;;0.73;0.73;;;15.90;85.10;;;;;;4978202;28;20435;-78
2022/10/14 09:01:26;;;;;;;0.80;0.80;;;15.60;85.70;;;;;;4978156;28;20497;-78
2022/10/14 09:03:57;;;;;;;1.00;0.90;;;15.80;85.80;;;;;;4978671;28;20557;-77
2022/10/14 09:06:26;;;;;;;0.80;0.80;;;15.80;84.60;;;;;;4986787;28;20435;-78
2022/10/14 09:08:56;;;;;;;1.37;0.87;;;15.60;85.80;;;;;;4980055;28;20971;-77
2022/10/14 09:11:24;;;;;;;0.70;0.70;;;15.90;85.30;;;;;;4977612;28;20982;-77
2022/10/14 09:13:55;;;;;;;0.90;0.90;;;15.90;84.90;;;;;;4978950;28;20976;-77
2022/10/14 09:16:25;;;;;;;1.10;0.90;;;15.90;84.90;;;;;;4979212;28;20906;-78
2022/10/14 09:18:54;;;;;;;0.70;0.70;;;16.00;85.40;;;;;;4980207;28;20458;-78
2022/10/14 09:21:30;;;;;;;0.80;0.80;;;16.00;85.30;;;;;;4979476;28;20489;-78
2022/10/14 09:23:59;;;;;;;0.80;0.80;;;15.80;85.80;;;;;;4978967;28;20445;-77
2022/10/14 09:26:31;;;;;;;0.70;0.70;;;16.00;85.60;;;;;;4978615;28;20458;-78
2022/10/14 09:28:59;;;;;;;0.80;0.80;;;16.30;86.10;;;;;;4977637;28;20466;-77
2022/10/14 09:31:26;;;;;;;0.80;0.80;;;16.50;84.30;;;;;;4978321;28;20473;-78
2022/10/14 09:33:52;;;;;;;0.70;0.70;;;16.70;84.50;;;;;;4978976;28;20481;-78
2022/10/14 09:36:20;;;;;;;0.77;0.77;;;16.60;84.10;;;;;;4979077;28;20944;-79
2022/10/14 09:38:50;;;;;;;0.70;0.70;;;16.60;83.70;;;;;;4980653;28;20972;-78
2022/10/14 09:41:19;;;;;;;0.70;0.70;;;16.60;84.30;;;;;;4979688;28;20490;-77
2022/10/14 09:44:21;;;;;;;1.53;0.80;;;16.80;84.70;;;;;;4977951;28;20457;-78
2022/10/14 09:46:51;;;;;;;0.93;0.83;;;16.90;83.90;;;;;;4977964;28;20442;-78
2022/10/14 09:49:22;;;;;;;1.37;0.87;;;16.90;83.10;;;;;;4980384;28;20441;-79
2022/10/14 09:51:50;;;;;;;0.70;0.70;;;16.80;82.40;;;;;;4980906;28;20982;-76
2022/10/14 09:54:25;;;;;;;0.80;0.80;;;16.80;83.40;;;;;;4978148;28;20801;-78
2022/10/14 09:56:59;;;;;;;0.90;0.70;;;16.90;83.90;;;;;;4978243;28;20438;-77
2022/10/14 09:59:28;;;;;;;0.70;0.70;;;16.90;83.60;;;;;;4979003;28;20793;-77
2022/10/14 10:01:56;;;;;;;0.80;0.80;;;17.10;83.00;;;;;;4976626;28;20537;-74
2022/10/14 10:04:35;;;;;;;0.70;0.70;;;17.30;81.50;;;;;;4977594;28;20482;-77
2022/10/14 10:07:05;;;;;;;0.70;0.70;;;17.40;81.80;;;;;;4977764;28;20446;-78
2022/10/14 10:09:32;;;;;;;0.80;0.80;;;17.60;81.30;;;;;;4977472;28;20508;-77
2022/10/14 10:11:59;;;;;;;0.90;0.70;;;17.50;80.10;;;;;;4977175;28;20970;-77
2022/10/14 10:14:31;;;;;;;0.87;0.70;;;17.50;80.00;;;;;;4976747;28;20462;-77
2022/10/14 10:17:13;;;;;;;0.70;0.70;;;17.40;79.30;;;;;;4977257;28;20438;-78
2022/10/14 10:19:41;;;;;;;1.10;0.80;;;17.40;80.60;;;;;;4976981;28;20914;-78
2022/10/14 10:22:26;;;;;;;0.80;0.70;;;17.30;80.00;;;;;;4977216;28;20517;-78
2022/10/14 10:25:17;;;;;;;0.70;0.60;;;17.40;80.70;;;;;;4977145;28;20454;-77
2022/10/14 10:27:46;;;;;;;0.70;0.70;;;17.50;80.50;;;;;;4977160;28;20489;-77
2022/10/14 10:30:23;;;;;;;0.60;0.60;;;17.50;79.70;;;;;;4976634;28;20464;-77
2022/10/14 10:33:11;;;;;;;0.70;0.70;;;17.60;80.00;;;;;;4976405;28;20810;-78
2022/10/14 10:35:55;;;;;;;0.80;0.80;;;17.50;79.90;;;;;;4976901;28;20439;-78
2022/10/14 10:38:23;;;;;;;0.67;0.67;;;17.50;80.70;;;;;;4976915;28;20450;-78
2022/10/14 10:41:02;;;;;;;1.10;0.70;;;17.60;80.80;;;;;;4976082;28;20525;-78
2022/10/14 10:43:52;;;;;;;0.77;0.70;;;17.60;80.80;;;;;;4977325;28;20461;-78
2022/10/14 10:46:34;;;;;;;0.77;0.77;;;17.40;80.90;;;;;;4977426;28;20438;-78
2022/10/14 10:49:07;;;;;;;0.77;0.77;;;17.40;81.90;;;;;;4976545;28;20430;-79
2022/10/14 10:51:40;;;;;;;0.77;0.70;;;17.30;82.00;;;;;;4976163;28;20450;-78
2022/10/14 10:54:20;;;;;;;0.70;0.70;;;17.40;80.90;;;;;;4976087;28;20439;-77
2022/10/14 10:56:50;;;;;;;0.73;0.73;;;17.40;81.30;;;;;;4976234;28;20437;-78
2022/10/14 10:59:40;;;;;;;0.80;0.80;;;17.50;81.80;;;;;;4976960;28;20456;-79
2022/10/14 11:02:54;;;;;;;0.70;0.70;;;17.50;81.60;;;;;;4976080;28;20619;-78
2022/10/14 11:05:42;;;;;;;0.73;0.73;;;17.50;81.80;;;;;;4969410;28;20450;-78
2022/10/14 11:14:18;;;;;;;0.77;0.73;;;17.00;82.60;;;;;;4983830;28;20406;-77
2022/10/14 11:16:53;;;;;;;0.60;0.60;;;16.80;84.30;;;;;;4983044;28;20423;-77
2022/10/14 11:19:27;;;;;;;0.63;0.63;;;16.70;85.10;;;;;;4981680;28;20952;-78
2022/10/14 11:22:06;;;;;;;1.23;0.80;;;16.60;84.80;;;;;;4984290;28;20514;-78
2022/10/14 11:24:46;;;;;;;0.80;0.73;;;16.70;86.30;;;;;;4983945;28;20434;-79
2022/10/14 11:27:18;;;;;;;0.80;0.80;;;16.70;86.30;;;;;;4982862;28;20417;-81
2022/10/14 11:30:12;;;;;;;0.80;0.80;;;16.80;87.30;;;;;;4983874;28;20805;-77
2022/10/14 11:32:49;;;;;;;0.83;0.83;;;16.90;87.00;;;;;;4984785;28;20478;-79
2022/10/14 11:35:26;;;;;;;0.70;0.70;;;17.00;86.30;;;;;;4989214;28;20441;-78
2022/10/14 11:38:07;;;;;;;0.83;0.83;;;17.10;85.50;;;;;;4988209;28;20490;-78
2022/10/14 11:40:39;;;;;;;0.77;0.77;;;17.00;85.60;;;;;;4988397;28;20434;-78
2022/10/14 11:43:18;;;;;;;0.90;0.90;;;17.00;86.50;;;;;;4988242;28;20940;-78
2022/10/14 11:45:51;;;;;;;0.70;0.70;;;17.00;85.80;;;;;;4988387;28;20446;-78
2022/10/14 11:48:27;;;;;;;2.70;0.80;;;17.20;86.10;;;;;;4987814;28;20465;-77
2022/10/14 11:50:58;;;;;;;0.70;0.70;;;17.30;86.50;;;;;;4986411;28;20449;-79
2022/10/14 11:53:39;;;;;;;0.90;0.90;;;17.20;86.20;;;;;;4989402;28;20934;-79
2022/10/14 11:56:18;;;;;;;0.70;0.70;;;17.40;85.70;;;;;;4987184;28;20417;-77
2022/10/14 11:58:47;;;;;;;0.80;0.80;;;17.50;84.90;;;;;;4987474;28;20427;-77
2022/10/14 12:01:16;;;;;;;0.80;0.80;;;17.50;84.90;;;;;;4988000;28;20494;-77
2022/10/14 12:03:52;;;;;;;1.27;0.80;;;17.50;83.80;;;;;;4989080;28;20489;-78
2022/10/14 12:06:24;;;;;;;0.60;0.60;;;17.50;84.40;;;;;;4989425;28;20438;-78
2022/10/14 12:08:57;;;;;;;0.80;0.60;;;17.60;84.20;;;;;;4987699;28;20435;-79
2022/10/14 12:11:29;;;;;;;0.60;0.60;;;17.60;84.60;;;;;;4986620;28;20462;-78
2022/10/14 12:14:05;;;;;;;0.60;0.60;;;17.80;83.30;;;;;;4986206;28;20941;-78
2022/10/14 12:16:33;;;;;;;0.70;0.63;;;17.70;83.00;;;;;;4987272;28;20442;-79
2022/10/14 12:19:00;;;;;;;0.70;0.70;;;17.80;82.90;;;;;;4986080;28;20533;-78
2022/10/14 12:21:32;;;;;;;0.93;0.63;;;17.90;83.00;;;;;;4980725;28;20474;-78
2022/10/14 12:24:05;;;;;;;0.80;0.80;;;18.00;82.00;;;;;;4976736;28;20973;-77
2022/10/14 12:26:48;;;;;;;0.63;0.63;;;18.10;81.50;;;;;;4976310;28;20800;-77
2022/10/14 12:29:18;;;;;;;0.60;0.60;;;18.10;82.00;;;;;;4977601;28;20449;-79
2022/10/14 12:31:50;;;;;;;0.70;0.70;;;18.10;81.80;;;;;;4977091;28;20470;-78
2022/10/14 12:34:33;;;;;;;0.70;0.70;;;18.10;80.90;;;;;;4976140;28;20434;-78
2022/10/14 12:37:08;;;;;;;0.60;0.53;;;18.10;81.30;;;;;;4976651;28;20517;-79
2022/10/14 12:39:42;;;;;;;0.60;0.60;;;18.00;81.70;;;;;;4976143;28;20905;-77
2022/10/14 12:42:12;;;;;;;0.60;0.60;;;17.90;81.30;;;;;;4975214;28;20501;-76
2022/10/14 12:44:46;;;;;;;0.70;0.70;;;17.90;82.10;;;;;;4975497;28;20439;-79
2022/10/14 12:47:19;;;;;;;0.70;0.60;;;18.00;82.00;;;;;;4977092;28;20481;-79
2022/10/14 12:49:49;;;;;;;0.63;0.63;;;17.80;82.30;;;;;;4976965;28;20438;-78
2022/10/14 12:52:23;;;;;;;0.60;0.60;;;17.80;83.00;;;;;;4976708;28;20500;-78
2022/10/14 12:54:52;;;;;;;0.60;0.60;;;17.90;82.40;;;;;;4981500;28;20466;-80
2022/10/14 12:57:27;;;;;;;0.70;0.60;;;17.90;82.00;;;;;;4981323;28;20450;-77
2022/10/14 12:59:56;;;;;;;0.60;0.50;;;18.00;82.80;;;;;;4979116;28;20445;-79
2022/10/14 13:02:31;;;;;;;0.80;0.70;;;18.00;82.60;;;;;;4984251;28;20870;-79
2022/10/14 13:05:00;;;;;;;0.60;0.60;;;18.10;82.60;;;;;;4983336;28;20430;-78
2022/10/14 13:07:47;;;;;;;0.60;0.60;;;18.20;81.40;;;;;;4984242;28;20438;-78
2022/10/14 13:10:43;;;;;;;0.60;0.60;;;18.10;81.60;;;;;;4980680;28;20560;-78
2022/10/14 13:13:51;;;;;;;0.60;0.50;;;18.10;80.90;;;;;;4973983;28;20458;-78
2022/10/14 13:16:51;;;;;;;0.60;0.53;;;18.00;81.20;;;;;;4974295;28;20461;-76
2022/10/14 13:19:45;;;;;;;0.70;0.60;;;17.90;81.10;;;;;;4977240;28;20446;-78
2022/10/14 13:22:42;;;;;;;0.60;0.50;;;18.00;81.40;;;;;;4982397;28;20493;-79
2022/10/14 13:25:20;;;;;;;0.60;0.50;;;18.00;81.60;;;;;;4984359;28;20453;-78
2022/10/14 13:28:07;;;;;;;2.30;0.60;;;18.00;81.70;;;;;;4989928;28;20430;-79
2022/10/14 13:30:39;;;;;;;0.60;0.60;;;18.00;80.60;;;;;;4984576;28;20458;-79
2022/10/14 13:33:17;;;;;;;0.60;0.60;;;18.10;81.40;;;;;;4990982;28;20455;-79
2022/10/14 13:35:53;;;;;;;0.70;0.60;;;18.00;80.90;;;;;;4985654;28;20445;-79
2022/10/14 13:38:23;;;;;;;0.60;0.57;;;17.90;81.00;;;;;;4986871;28;20430;-80
2022/10/14 13:40:51;;;;;;;0.70;0.60;;;17.90;81.00;;;;;;4986205;28;20465;-79
2022/10/14 13:43:25;;;;;;;0.70;0.67;;;17.90;81.70;;;;;;4986223;28;21059;-79
2022/10/14 13:45:55;;;;;;;0.60;0.60;;;18.10;81.10;;;;;;4978271;28;20434;-77
2022/10/14 13:48:29;;;;;;;0.60;0.53;;;18.10;81.00;;;;;;4985658;28;20438;-79
2022/10/14 13:51:12;;;;;;;0.63;0.57;;;18.10;80.70;;;;;;4985956;28;20485;-77
2022/10/14 13:53:49;;;;;;;0.60;0.50;;;18.20;80.50;;;;;;4982027;28;20435;-79
2022/10/14 13:56:21;;;;;;;0.60;0.57;;;18.30;80.70;;;;;;4984498;28;20442;-79
2022/10/14 13:58:49;;;;;;;0.93;0.60;;;18.30;80.40;;;;;;4984246;28;20430;-79
2022/10/14 14:01:19;;;;;;;0.60;0.50;;;18.20;81.50;;;;;;4981172;28;20486;-78
2022/10/14 14:03:50;;;;;;;1.30;0.53;;;18.10;80.90;;;;;;4988547;28;20444;-79
2022/10/14 14:06:20;;;;;;;0.60;0.60;;;18.10;82.00;;;;;;4987562;28;20804;-79
2022/10/14 14:08:49;;;;;;;0.90;0.60;;;18.00;81.20;;;;;;4981316;28;20449;-77
2022/10/14 14:11:21;;;;;;;0.60;0.60;;;18.00;81.90;;;;;;4978892;28;20909;-78
2022/10/14 14:13:57;;;;;;;0.60;0.60;;;18.10;81.70;;;;;;4984272;28;20450;-79
2022/10/14 14:16:27;;;;;;;0.70;0.50;;;18.00;81.40;;;;;;4981834;28;20438;-79
2022/10/14 14:18:54;;;;;;;1.00;0.60;;;18.00;82.70;;;;;;4979689;28;20423;-79
2022/10/14 14:21:22;;;;;;;0.80;0.50;;;18.00;82.90;;;;;;4981461;28;20826;-79
2022/10/14 14:23:50;;;;;;;0.60;0.50;;;18.00;82.50;;;;;;4983228;28;20446;-79
2022/10/14 14:26:18;;;;;;;0.60;0.60;;;17.90;81.80;;;;;;4980881;28;20442;-78
2022/10/14 14:28:47;;;;;;;0.60;0.50;;;17.90;82.40;;;;;;4980359;28;20455;-78
2022/10/14 14:32:02;;;;;;;0.67;0.60;;;17.70;82.90;;;;;;4977386;28;20470;-77
2022/10/14 14:34:30;;;;;;;0.80;0.77;;;17.80;83.00;;;;;;4959086;28;20942;-78
2022/10/14 14:36:59;;;;;;;0.60;0.60;;;17.80;82.80;;;;;;4977312;28;20450;-76
2022/10/14 14:39:28;;;;;;;0.60;0.50;;;17.70;83.00;;;;;;4976897;28;20486;-77
2022/10/14 14:41:58;;;;;;;0.60;0.50;;;17.70;83.30;;;;;;4979914;28;20510;-77
2022/10/14 14:44:27;;;;;;;0.60;0.50;;;17.80;83.60;;;;;;4982166;28;20446;-79
2022/10/14 14:46:57;;;;;;;0.67;0.50;;;17.90;82.40;;;;;;4978188;28;20450;-78
2022/10/14 14:49:28;;;;;;;0.60;0.53;;;18.00;82.50;;;;;;4977586;28;20434;-79
2022/10/14 14:51:57;;;;;;;0.60;0.60;;;17.90;81.80;;;;;;4978374;28;20478;-78
2022/10/14 14:54:24;;;;;;;0.63;0.53;;;17.70;82.60;;;;;;4978346;28;20447;-78
2022/10/14 14:56:56;;;;;;;0.60;0.60;;;17.60;82.90;;;;;;4976902;28;20950;-79
2022/10/14 14:59:28;;;;;;;0.57;0.50;;;17.50;83.50;;;;;;4978298;28;20430;-79
2022/10/14 15:01:57;;;;;;;1.00;0.60;;;17.50;84.00;;;;;;4976590;28;20497;-76
2022/10/14 15:04:25;;;;;;;0.70;0.70;;;17.40;84.20;;;;;;4975995;28;20458;-78
2022/10/14 15:07:00;;;;;;;0.67;0.60;;;17.40;84.60;;;;;;4976152;28;20451;-78
2022/10/14 15:09:35;;;;;;;0.60;0.60;;;17.30;85.40;;;;;;4977615;28;20834;-77
2022/10/14 15:12:04;;;;;;;0.60;0.50;;;17.20;85.90;;;;;;4976884;28;20813;-79
2022/10/14 15:14:35;;;;;;;0.60;0.50;;;17.20;86.20;;;;;;4979311;28;20946;-78
2022/10/14 15:17:04;;;;;;;0.60;0.50;;;17.10;86.60;;;;;;4976206;28;20423;-77
2022/10/14 15:19:34;;;;;;;0.60;0.50;;;17.20;86.70;;;;;;4976599;28;20450;-77
2022/10/14 15:22:36;;;;;;;0.60;0.60;;;17.10;87.00;;;;;;4975746;28;20470;-76
2022/10/14 15:25:05;;;;;;;0.60;0.60;;;17.10;87.10;;;;;;4961668;28;20513;-77
2022/10/14 15:27:46;;;;;;;0.60;0.50;;;17.10;87.20;;;;;;4975685;28;20930;-77
2022/10/14 15:30:25;;;;;;;0.57;0.50;;;17.00;87.20;;;;;;4977600;28;20442;-76
2022/10/14 15:32:55;;;;;;;0.70;0.70;;;17.00;88.00;;;;;;4976442;28;20433;-75
2022/10/14 15:35:23;;;;;;;0.60;0.60;;;16.90;88.50;;;;;;4976157;28;20988;-76
2022/10/14 15:37:52;;;;;;;0.60;0.50;;;16.90;88.80;;;;;;4975903;28;20791;-76
2022/10/14 15:40:22;;;;;;;0.60;0.50;;;16.90;89.00;;;;;;4976134;28;20954;-76
2022/10/14 15:42:49;;;;;;;0.60;0.60;;;17.00;88.80;;;;;;4976261;28;20490;-76
2022/10/14 15:45:16;;;;;;;0.60;0.60;;;16.90;89.10;;;;;;4976394;28;20439;-76
2022/10/14 15:47:43;;;;;;;0.70;0.70;;;16.80;89.50;;;;;;4976323;28;20938;-76
2022/10/14 15:50:16;;;;;;;0.60;0.60;;;16.70;90.50;;;;;;4976312;28;20830;-76
2022/10/14 15:52:44;;;;;;;0.60;0.53;;;16.70;90.80;;;;;;4976145;28;20465;-76
2022/10/14 15:55:18;;;;;;;0.60;0.50;;;16.90;90.30;;;;;;4975198;28;20945;-76
2022/10/14 15:57:45;;;;;;;0.60;0.50;;;16.90;89.80;;;;;;4975224;28;20446;-76
2022/10/14 16:00:13;;;;;;;0.60;0.50;;;16.80;90.40;;;;;;4975248;28;20462;-76
2022/10/14 16:02:43;;;;;;;0.60;0.50;;;16.70;90.80;;;;;;4975962;28;20494;-76
2022/10/14 16:05:10;;;;;;;0.80;0.80;;;16.80;90.20;;;;;;4975796;28;20446;-78
2022/10/14 16:07:37;;;;;;;0.77;0.57;;;16.80;90.30;;;;;;4975493;28;20450;-77
2022/10/14 16:10:04;;;;;;;0.60;0.50;;;16.80;90.50;;;;;;4974503;28;20972;-77
2022/10/14 16:12:33;;;;;;;0.60;0.57;;;16.90;90.40;;;;;;4975117;28;20469;-78
2022/10/14 16:15:00;;;;;;;0.60;0.60;;;16.80;89.90;;;;;;4974218;28;20820;-77